createdAt,value
2023-02-14T00:00:08.291Z,42.17
2023-02-14T00:03:11.770Z,40.07
2023-02-14T00:06:16.056Z,40.80
2023-02-14T00:09:20.805Z,38.90
2023-02-14T00:12:24.093Z,40.60
2023-02-14T00:15:28.726Z,44.43
2023-02-14T00:18:45.920Z,40.40
2023-02-14T00:21:50.328Z,38.77
2023-02-14T00:24:53.610Z,44.07
2023-02-14T00:27:56.940Z,42.13
2023-02-14T00:31:02.790Z,46.60
2023-02-14T00:34:06.697Z,37.50
2023-02-14T00:37:09.812Z,43.40
2023-02-14T00:40:15.880Z,45.33
2023-02-14T00:43:18.931Z,37.30
2023-02-14T00:46:25.090Z,44.10
2023-02-14T00:49:29.023Z,43.97
2023-02-14T00:52:35.362Z,39.70
2023-02-14T00:55:38.855Z,36.40
2023-02-14T00:58:42.735Z,38.73
2023-02-14T01:01:47.294Z,39.33
2023-02-14T01:04:50.465Z,46.63
2023-02-14T01:07:55.178Z,43.70
2023-02-14T01:11:08.506Z,39.33
2023-02-14T01:14:11.855Z,39.97
2023-02-14T01:17:16.976Z,36.60
2023-02-14T01:20:20.325Z,39.20
2023-02-14T01:23:25.672Z,38.17
2023-02-14T01:26:29.949Z,36.23
2023-02-14T01:29:33.219Z,40.33
2023-02-14T01:32:38.185Z,37.47
2023-02-14T01:35:41.539Z,42.47
2023-02-14T01:38:48.321Z,44.90
2023-02-14T01:41:53.880Z,39.97
2023-02-14T01:45:02.179Z,37.43
2023-02-14T01:48:07.008Z,46.63
2023-02-14T01:51:10.477Z,39.67
2023-02-14T01:54:14.306Z,38.90
2023-02-14T01:57:20.445Z,36.50
2023-02-14T02:00:41.566Z,41.80
2023-02-14T02:03:50.569Z,38.13
2023-02-14T02:06:58.301Z,40.13
2023-02-14T02:10:08.751Z,39.80
2023-02-14T02:13:19.285Z,40.37
2023-02-14T02:16:48.428Z,39.67
2023-02-14T02:21:07.125Z,40.80
2023-02-14T02:24:33.319Z,41.83
2023-02-14T02:27:56.778Z,37.27
2023-02-14T02:31:22.323Z,37.53
2023-02-14T02:35:17.227Z,35.13
2023-02-14T02:38:45.010Z,33.90
2023-02-14T02:42:04.316Z,35.37
2023-02-14T02:45:15.459Z,33.40
2023-02-14T02:48:24.790Z,37.00
2023-02-14T02:51:56.494Z,44.03
2023-02-14T02:55:06.973Z,42.17
2023-02-14T02:58:10.371Z,37.43
2023-02-14T03:01:18.466Z,41.33
2023-02-14T03:04:40.382Z,36.97
2023-02-14T03:07:45.339Z,43.70
2023-02-14T03:10:48.916Z,39.90
2023-02-14T03:14:10.872Z,36.23
2023-02-14T03:17:43.798Z,38.00
2023-02-14T03:20:55.485Z,39.17
2023-02-14T03:24:09.305Z,39.23
2023-02-14T03:27:19.387Z,40.37
2023-02-14T03:30:36.682Z,36.13
2023-02-14T03:33:48.874Z,39.80
2023-02-14T03:37:00.999Z,41.80
2023-02-14T03:40:11.202Z,38.37
2023-02-14T03:43:20.270Z,38.87
2023-02-14T03:46:28.928Z,45.47
2023-02-14T03:49:36.690Z,38.57
2023-02-14T03:52:44.821Z,41.47
2023-02-14T03:55:56.972Z,39.77
2023-02-14T03:59:10.620Z,41.90
2023-02-14T04:02:18.987Z,39.63
2023-02-14T04:05:26.587Z,37.13
2023-02-14T04:08:30.861Z,43.53
2023-02-14T04:11:35.902Z,45.50
2023-02-14T04:14:39.267Z,39.97
2023-02-14T04:18:00.134Z,42.03
2023-02-14T04:21:03.190Z,40.43
2023-02-14T04:24:12.392Z,43.97
2023-02-14T04:27:26.058Z,40.03
2023-02-14T04:30:34.013Z,40.00
2023-02-14T04:33:37.463Z,41.20
2023-02-14T04:36:43.348Z,38.27
2023-02-14T04:39:47.006Z,40.27
2023-02-14T04:42:51.352Z,40.03
2023-02-14T04:45:54.456Z,38.43
2023-02-14T04:48:57.496Z,40.23
2023-02-14T04:52:00.822Z,40.80
2023-02-14T04:55:04.447Z,50.50
2023-02-14T04:58:09.297Z,40.90
2023-02-14T05:01:12.423Z,39.83
2023-02-14T05:04:15.850Z,38.57
2023-02-14T05:07:19.407Z,38.43
2023-02-14T05:10:25.645Z,40.00
2023-02-14T05:13:30.164Z,36.23
2023-02-14T05:16:33.488Z,38.83
2023-02-14T05:19:36.693Z,37.50
2023-02-14T05:22:39.972Z,40.57
2023-02-14T05:25:45.792Z,39.43
2023-02-14T05:28:50.436Z,40.03
2023-02-14T05:31:53.658Z,40.33
2023-02-14T05:34:57.056Z,36.87
2023-02-14T05:38:00.382Z,39.73
2023-02-14T05:41:03.826Z,39.03
2023-02-14T05:44:11.358Z,45.23
2023-02-14T05:47:14.615Z,43.00
2023-02-14T05:50:18.509Z,39.33
2023-02-14T05:53:21.648Z,38.87
2023-02-14T05:56:24.819Z,40.83
2023-02-14T05:59:29.584Z,36.90
2023-02-14T06:02:32.700Z,35.27
2023-02-14T06:05:36.243Z,38.60
2023-02-14T06:08:39.415Z,35.40
2023-02-14T06:11:42.712Z,42.53
2023-02-14T06:14:47.085Z,35.87
2023-02-14T06:17:53.917Z,40.63
2023-02-14T06:20:57.568Z,40.23
2023-02-14T06:24:01.053Z,39.33
2023-02-14T06:27:04.452Z,42.30
2023-02-14T06:30:11.358Z,46.87
2023-02-14T06:33:14.590Z,47.20
2023-02-14T06:36:18.014Z,37.30
2023-02-14T06:39:21.511Z,43.07
2023-02-14T06:42:24.629Z,43.07
2023-02-14T06:45:29.105Z,36.17
2023-02-14T06:48:32.189Z,43.97
2023-02-14T06:51:35.421Z,35.43
2023-02-14T06:54:38.480Z,40.10
2023-02-14T06:57:43.596Z,38.60
2023-02-14T07:00:48.716Z,43.27
2023-02-14T07:03:51.906Z,37.67
2023-02-14T07:06:55.036Z,34.93
2023-02-14T07:09:58.137Z,36.40
2023-02-14T07:13:01.911Z,36.23
2023-02-14T07:16:07.053Z,42.80
2023-02-14T07:19:10.321Z,41.67
2023-02-14T07:22:13.527Z,40.17
2023-02-14T07:25:16.756Z,37.23
2023-02-14T07:28:20.141Z,40.50
2023-02-14T07:31:24.636Z,43.23
2023-02-14T07:34:28.187Z,37.90
2023-02-14T07:37:33.258Z,44.37
2023-02-14T07:40:36.396Z,42.17
2023-02-14T07:43:39.856Z,41.67
2023-02-14T07:46:44.826Z,44.40
2023-02-14T07:49:51.041Z,48.13
2023-02-14T07:52:54.417Z,44.90
2023-02-14T07:55:57.918Z,47.87
2023-02-14T07:59:03.149Z,45.37
2023-02-14T08:02:07.869Z,48.93
2023-02-14T08:05:11.231Z,49.23
2023-02-14T08:08:14.398Z,46.80
2023-02-14T08:11:38.238Z,49.90
2023-02-14T08:14:42.276Z,48.33
2023-02-14T08:17:46.688Z,40.60
2023-02-14T08:20:50.683Z,45.27
2023-02-14T08:23:54.159Z,45.70
2023-02-14T08:26:57.787Z,47.73
2023-02-14T08:30:00.945Z,46.60
2023-02-14T08:33:06.147Z,43.87
2023-02-14T08:36:09.521Z,50.43
2023-02-14T08:39:12.839Z,50.50
2023-02-14T08:42:16.024Z,52.07
2023-02-14T08:45:19.215Z,55.03
2023-02-14T08:48:25.312Z,47.00
2023-02-14T08:51:29.179Z,49.30
2023-02-14T08:54:32.482Z,45.30
2023-02-14T08:57:35.579Z,45.70
2023-02-14T09:00:39.202Z,48.60
2023-02-14T09:03:44.215Z,44.60
2023-02-14T09:06:48.514Z,50.33
2023-02-14T09:09:51.597Z,51.50
2023-02-14T09:12:54.849Z,44.57
2023-02-14T09:15:58.008Z,46.73
2023-02-14T09:19:02.795Z,46.23
2023-02-14T09:22:08.039Z,47.77
2023-02-14T09:25:11.519Z,49.07
2023-02-14T09:28:15.175Z,46.63
2023-02-14T09:31:21.227Z,50.73
2023-02-14T09:34:26.195Z,48.63
2023-02-14T09:37:47.414Z,52.40
2023-02-14T09:40:53.509Z,46.43
2023-02-14T09:44:02.841Z,40.40
2023-02-14T09:47:15.534Z,45.80
2023-02-14T09:50:25.442Z,45.50
2023-02-14T09:53:31.969Z,53.10
2023-02-14T09:56:51.353Z,45.83
2023-02-14T10:00:05.169Z,41.87
2023-02-14T10:03:44.121Z,43.13
2023-02-14T10:06:54.548Z,46.23
2023-02-14T10:10:03.079Z,40.90
2023-02-14T10:13:15.791Z,40.93
2023-02-14T10:16:27.216Z,38.30
2023-02-14T10:19:35.924Z,42.23
2023-02-14T10:22:47.853Z,39.57
2023-02-14T10:25:59.231Z,39.87
2023-02-14T10:29:06.649Z,44.30
2023-02-14T10:32:15.740Z,42.50
2023-02-14T10:35:32.608Z,38.77
2023-02-14T10:38:49.608Z,40.83
2023-02-14T10:41:59.638Z,39.00
2023-02-14T10:45:17.315Z,38.87
2023-02-14T10:48:31.103Z,38.00
2023-02-14T10:51:41.129Z,34.77
2023-02-14T10:54:53.051Z,39.73
2023-02-14T10:57:57.694Z,34.30
2023-02-14T11:01:06.981Z,39.40
2023-02-14T11:04:13.162Z,37.93
2023-02-14T11:07:18.804Z,37.60
2023-02-14T11:10:29.722Z,31.73
2023-02-14T11:13:38.904Z,36.07
2023-02-14T11:16:42.554Z,38.43
2023-02-14T11:19:59.337Z,32.47
2023-02-14T11:23:21.417Z,35.50
2023-02-14T11:26:31.887Z,33.33
2023-02-14T11:29:43.711Z,30.67
2023-02-14T11:32:56.108Z,36.37
2023-02-14T11:35:59.642Z,40.30
2023-02-14T11:39:25.829Z,40.83
2023-02-14T11:42:43.853Z,38.17
2023-02-14T11:45:49.037Z,33.77
2023-02-14T11:48:59.841Z,34.90
2023-02-14T11:52:11.821Z,40.77
2023-02-14T11:55:27.205Z,42.60
2023-02-14T11:58:37.199Z,35.97
2023-02-14T12:01:41.466Z,33.67
2023-02-14T12:04:46.971Z,37.00
2023-02-14T12:07:53.717Z,36.33
2023-02-14T12:11:06.020Z,33.47
2023-02-14T12:14:23.037Z,34.27
2023-02-14T12:17:34.260Z,33.87
2023-02-14T12:20:45.420Z,36.47
2023-02-14T12:24:00.228Z,36.63
2023-02-14T12:27:20.021Z,36.30
2023-02-14T12:30:30.859Z,36.97
2023-02-14T12:33:34.149Z,32.97
2023-02-14T12:37:05.385Z,32.67
2023-02-14T12:40:23.011Z,34.47
2023-02-14T12:43:47.951Z,35.33
2023-02-14T12:47:19.464Z,39.03
2023-02-14T12:50:35.937Z,38.20
2023-02-14T12:53:52.133Z,36.80
2023-02-14T12:57:07.567Z,40.23
2023-02-14T13:00:28.959Z,35.03
2023-02-14T13:03:51.602Z,36.20
2023-02-14T13:07:05.627Z,33.97
2023-02-14T13:10:22.942Z,37.40
2023-02-14T13:13:36.906Z,35.03
2023-02-14T13:16:47.861Z,35.87
2023-02-14T13:20:03.320Z,36.13
2023-02-14T13:23:13.577Z,33.10
2023-02-14T13:26:20.713Z,37.50
2023-02-14T13:29:27.688Z,34.33
2023-02-14T13:32:36.260Z,37.10
2023-02-14T13:35:42.027Z,39.27
2023-02-14T13:38:48.795Z,39.93
2023-02-14T13:41:52.025Z,32.57
2023-02-14T13:44:55.185Z,35.40
2023-02-14T13:48:05.795Z,36.83
2023-02-14T13:51:11.424Z,40.47
2023-02-14T13:54:35.775Z,38.23
2023-02-14T13:57:41.320Z,34.90
2023-02-14T14:00:46.871Z,37.70
2023-02-14T14:04:00.360Z,34.63
2023-02-14T14:07:30.720Z,38.43
2023-02-14T14:10:46.171Z,37.10
2023-02-14T14:13:57.872Z,38.33
2023-02-14T14:17:02.382Z,41.47
2023-02-14T14:20:42.674Z,36.93
2023-02-14T14:23:46.015Z,42.10
2023-02-14T14:26:52.151Z,42.23
2023-02-14T14:29:58.610Z,40.20
2023-02-14T14:33:15.078Z,40.73
2023-02-14T14:36:25.995Z,37.83
2023-02-14T14:39:32.709Z,35.87
2023-02-14T14:42:39.967Z,39.13
2023-02-14T14:45:48.153Z,33.23
2023-02-14T14:48:57.252Z,33.13
2023-02-14T14:52:01.861Z,34.80
2023-02-14T14:55:07.690Z,38.20
2023-02-14T14:58:35.422Z,39.90
2023-02-14T15:01:45.963Z,36.80
2023-02-14T15:04:49.387Z,31.03
2023-02-14T15:07:54.173Z,40.10
2023-02-14T15:11:08.120Z,35.23
2023-02-14T15:14:17.813Z,34.13
2023-02-14T15:17:26.799Z,35.37
2023-02-14T15:20:30.036Z,32.83
2023-02-14T15:23:35.384Z,33.27
2023-02-14T15:26:38.724Z,34.83
2023-02-14T15:29:41.884Z,31.13
2023-02-14T15:32:52.135Z,32.60
2023-02-14T15:35:57.320Z,31.80
2023-02-14T15:39:04.852Z,33.17
2023-02-14T15:42:26.090Z,36.80
2023-02-14T15:45:32.165Z,32.83
2023-02-14T15:48:36.432Z,35.17
2023-02-14T15:51:40.983Z,32.77
2023-02-14T15:54:47.504Z,33.87
2023-02-14T15:58:01.514Z,36.87
2023-02-14T16:01:05.726Z,42.43
2023-02-14T16:04:08.946Z,32.47
2023-02-14T16:07:25.380Z,34.70
2023-02-14T16:10:33.256Z,33.47
2023-02-14T16:13:39.255Z,35.30
2023-02-14T16:17:03.502Z,39.17
2023-02-14T16:20:29.688Z,32.57
2023-02-14T16:23:33.314Z,39.63
2023-02-14T16:26:41.027Z,34.37
2023-02-14T16:29:44.162Z,33.10
2023-02-14T16:32:53.557Z,34.83
2023-02-14T16:36:06.185Z,40.63
2023-02-14T16:39:16.863Z,37.93
2023-02-14T16:42:21.828Z,40.50
2023-02-14T16:45:25.005Z,34.40
2023-02-14T16:48:32.033Z,33.57
2023-02-14T16:51:38.721Z,32.27
2023-02-14T16:54:41.943Z,35.20
2023-02-14T16:57:49.302Z,39.37
2023-02-14T17:00:52.615Z,33.53
2023-02-14T17:03:57.397Z,36.83
2023-02-14T17:07:05.779Z,37.87
2023-02-14T17:10:13.170Z,36.90
2023-02-14T17:13:23.136Z,35.63
2023-02-14T17:16:26.305Z,38.83
2023-02-14T17:19:29.567Z,35.10
2023-02-14T17:22:34.438Z,36.63
2023-02-14T17:25:38.672Z,40.23
2023-02-14T17:28:43.415Z,40.13
2023-02-14T17:31:46.776Z,35.50
2023-02-14T17:34:50.194Z,39.43
2023-02-14T17:37:53.238Z,40.97
2023-02-14T17:40:56.294Z,38.47
2023-02-14T17:44:00.853Z,36.00
2023-02-14T17:47:08.190Z,37.23
2023-02-14T17:50:13.029Z,35.10
2023-02-14T17:53:17.833Z,35.53
2023-02-14T17:56:24.542Z,36.10
2023-02-14T17:59:29.097Z,32.20
2023-02-14T18:02:32.424Z,38.10
2023-02-14T18:05:37.551Z,38.30
2023-02-14T18:08:46.241Z,35.07
2023-02-14T18:11:50.454Z,35.87
2023-02-14T18:14:56.176Z,33.57
2023-02-14T18:17:59.298Z,36.40
2023-02-14T18:21:04.643Z,36.80
2023-02-14T18:24:08.612Z,34.03
2023-02-14T18:27:15.865Z,36.23
2023-02-14T18:30:20.622Z,36.10
2023-02-14T18:33:26.748Z,34.07
2023-02-14T18:36:31.701Z,39.30
2023-02-14T18:39:35.053Z,33.70
2023-02-14T18:42:38.225Z,34.07
2023-02-14T18:45:42.738Z,35.03
2023-02-14T18:48:46.145Z,34.77
2023-02-14T18:51:49.984Z,35.67
2023-02-14T18:54:53.346Z,35.87
2023-02-14T18:57:56.580Z,34.97
2023-02-14T19:01:09.313Z,36.20
2023-02-14T19:04:17.064Z,33.50
2023-02-14T19:07:20.100Z,33.77
2023-02-14T19:10:23.352Z,42.37
2023-02-14T19:13:29.253Z,40.27
2023-02-14T19:16:38.177Z,37.87
2023-02-14T19:19:41.307Z,35.23
2023-02-14T19:22:44.374Z,42.40
2023-02-14T19:25:47.493Z,43.13
2023-02-14T19:32:19.083Z,39.37
2023-02-14T19:35:22.297Z,40.93
2023-02-14T19:38:25.445Z,41.60
2023-02-14T19:41:34.303Z,47.47
2023-02-14T19:44:37.447Z,40.57
2023-02-14T19:47:47.197Z,49.20
2023-02-14T19:50:50.800Z,43.47
2023-02-14T19:53:55.669Z,43.53
2023-02-14T19:56:59.165Z,45.27
2023-02-14T20:00:02.420Z,46.10
2023-02-14T20:03:16.080Z,48.40
2023-02-14T20:06:19.485Z,46.87
2023-02-14T20:09:23.731Z,48.13
2023-02-14T20:12:29.777Z,49.43
2023-02-14T20:15:35.651Z,49.57
2023-02-14T20:18:40.141Z,44.10
2023-02-14T20:21:45.071Z,44.03
2023-02-14T20:24:48.196Z,54.67
2023-02-14T20:27:55.287Z,51.00
2023-02-14T20:30:58.686Z,47.40
2023-02-14T20:34:04.090Z,53.47
2023-02-14T20:37:07.529Z,52.07
2023-02-14T20:40:12.962Z,50.03
2023-02-14T20:43:18.329Z,52.50
2023-02-14T20:46:23.609Z,51.90
2023-02-14T20:49:32.672Z,45.43
2023-02-14T20:52:37.285Z,51.60
2023-02-14T20:55:44.500Z,49.17
2023-02-14T20:58:47.774Z,50.27
2023-02-14T21:01:52.212Z,48.97
2023-02-14T21:05:00.115Z,50.03
2023-02-14T21:08:03.504Z,48.20
2023-02-14T21:11:09.306Z,45.97
2023-02-14T21:14:12.826Z,49.63
2023-02-14T21:17:16.500Z,43.73
2023-02-14T21:20:21.316Z,46.53
2023-02-14T21:23:24.537Z,49.30
2023-02-14T21:26:30.982Z,43.27
2023-02-14T21:29:34.038Z,46.17
2023-02-14T21:32:37.481Z,44.30
2023-02-14T21:35:41.968Z,42.87
2023-02-14T21:38:46.092Z,44.43
2023-02-14T21:41:50.217Z,46.13
2023-02-14T21:45:10.599Z,42.07
2023-02-14T21:48:34.277Z,43.23
2023-02-14T21:51:39.682Z,48.50
2023-02-14T21:54:43.018Z,46.10
2023-02-14T21:57:46.652Z,47.87
2023-02-14T22:00:49.718Z,46.60
2023-02-14T22:03:53.553Z,46.67
2023-02-14T22:06:58.026Z,39.17
2023-02-14T22:10:01.313Z,48.17
2023-02-14T22:13:04.483Z,47.47
2023-02-14T22:16:11.751Z,46.93
2023-02-14T22:19:16.516Z,44.03
2023-02-14T22:22:20.988Z,47.73
2023-02-14T22:25:26.218Z,50.23
2023-02-14T22:28:29.272Z,47.03
2023-02-14T22:31:36.817Z,49.13
2023-02-14T22:34:40.097Z,50.47
2023-02-14T22:37:48.609Z,49.23
2023-02-14T22:40:51.789Z,46.67
2023-02-14T22:43:55.459Z,46.30
2023-02-14T22:46:58.616Z,48.90
2023-02-14T22:50:01.736Z,48.90
2023-02-14T22:53:06.685Z,41.63
2023-02-14T22:56:15.983Z,44.87
2023-02-14T22:59:21.242Z,42.40
2023-02-14T23:02:24.436Z,43.80
2023-02-14T23:05:27.783Z,41.27
2023-02-14T23:08:32.336Z,43.47
2023-02-14T23:11:38.063Z,46.27
2023-02-14T23:14:58.433Z,46.53
2023-02-14T23:18:19.329Z,44.03
2023-02-14T23:21:36.358Z,42.17
2023-02-14T23:24:41.525Z,45.07
2023-02-14T23:27:48.168Z,46.63
2023-02-14T23:30:51.568Z,43.30
2023-02-14T23:33:54.678Z,44.43
2023-02-14T23:36:58.808Z,52.80
2023-02-14T23:40:04.002Z,48.10
2023-02-14T23:43:07.060Z,46.77
2023-02-14T23:46:10.343Z,46.43
2023-02-14T23:49:13.691Z,46.93
2023-02-14T23:52:17.034Z,45.70
2023-02-14T23:55:21.703Z,45.70
2023-02-14T23:58:24.842Z,42.53
